Skip Navigation Links
NOAA logo - Click to go to the NOAA homepage
NOAA's National Weather Service
Alaska Aviation Weather Unit
  NWS logo - Click to go to the NWS homepage
Left Navbar Graphic     02 AKDT = 10 GMT

   
NOAA is celebrating 200 years of science, service, and stewardship. Visit the NOAA 200th celebration Web site to learn more.
USA.gov is the U.S. Government's official Web portal to all Federal, state and local government Web resources and services.
Facebook
NWS on Facebook

AAWU Home :: Display TAF Add Bookmark
TAF PAVD 270533Z 2706/2806 07004KT P6SM VCSH SCT040 BKN070
     FM272100 06006KT 6SM -SN BR BKN040 OVC060 AMD LTD TO CLD VIS
      AND WIND=
PAVD 270416Z 09005KT 10SM FEW055 BKN060 BKN100 M02/M08 A2962=

METAR PAVD 270416Z 09005KT 10SM FEW055 BKN060 BKN100 M02/M08 A2962 RMK
     AO1 0347Z WEA: VCSH NE-S TWR WND 05006KT=

METAR PAVD 270436Z 10006G14KT 10SM FEW055 BKN060 BKN100 M02/M08
     A2962=

METAR PAVD 270436Z 10006G14KT 10SM FEW055 BKN060 BKN100 M02/M08 A2962
     RMK AO1 0347Z WEA: VCSH NE-S TWR WND 05006KT=

METAR PAVD 270456Z 09006KT 10SM FEW035 BKN060 BKN100 M02/M07 A2962=

PAVD 270516Z 06005KT 10SM FEW035 BKN060 BKN100 M02/M07 A2961=

METAR PAVD 270516Z 06005KT 10SM FEW035 BKN060 BKN100 M02/M07 A2961 RMK
     AO1 0447Z WEA: VCSH NE-S TWR WND 07005KT=

METAR PAVD 270536Z 11005KT 10SM FEW035 BKN060 BKN100 M02/M07 A2961=

METAR PAVD 270536Z 11005KT 10SM FEW035 BKN060 BKN100 M02/M07 A2961 RMK
     AO1 0447Z WEA: VCSH NE-S TWR WND 07005KT=

METAR PAVD 270556Z 00000KT 10SM BKN060 M02/M07 A2960=

PAVD 270616Z 00000KT 10SM SCT060 OVC075 M02/M07 A2960=

METAR PAVD 270616Z 00000KT 10SM SCT060 OVC075 M02/M07 A2960 RMK AO1
=

PAVD 270636Z 05004KT 10SM BKN065 OVC075 M02/M07 A2960=

METAR PAVD 270636Z 05004KT 10SM BKN065 OVC075 M02/M07 A2960 RMK AO1
=

METAR PAVD 270656Z 00000KT 10SM OVC065 M02/M07 A2959=

PAVD 270716Z 04006KT 10SM OVC065 M02/M07 A2959=

METAR PAVD 270716Z 04006KT 10SM OVC065 M02/M07 A2959 RMK AO1
=

PAVD 270736Z 09005KT 10SM OVC055 M02/M08 A2958=

METAR PAVD 270736Z 09005KT 10SM OVC055 M02/M08 A2958 RMK AO1=

METAR PAVD 270756Z 06003KT 10SM OVC050 M02/M07 A2958=

PAVD 270816Z 00000KT 10SM SCT050 OVC070 M02/M07 A2958=

METAR PAVD 270816Z 00000KT 10SM SCT050 OVC070 M02/M07 A2958 RMK AO1=

PAVD 270836Z 06003KT 10SM BKN060 OVC070 M02/M07 A2958=

METAR PAVD 270836Z 06003KT 10SM BKN060 OVC070 M02/M07 A2958 RMK AO1=

METAR PAVD 270856Z 04004KT 10SM OVC060 M02/M07 A2958=

PAVD 270916Z 04003KT 10SM BKN060 OVC070 M02/M07 A2957=

METAR PAVD 270916Z 04003KT 10SM BKN060 OVC070 M02/M07 A2957 RMK AO1=

PAVD 270936Z 06003KT 10SM OVC060 M02/M07 A2957=

METAR PAVD 270936Z 06003KT 10SM OVC060 M02/M07 A2957 RMK AO1=

METAR PAVD 270956Z 08003KT 10SM BKN060 OVC065 M02/M07 A2956=

PAVD 271016Z 04006KT 10SM OVC060 M02/M07 A2956=

METAR PAVD 271016Z 04006KT 10SM OVC060 M02/M07 A2956 RMK AO1=


NOAA's National Weather Service
Alaska Aviation Weather Unit
6930 Sand Lake Road
Anchorage, AK 99502-1845
Disclaimer
Credits
Glossary
Privacy Policy
About Us
Career Opportunities
Contact AAWU Internet Services Site last modified: April, 17th 2012